Date,TemperatureHighF,TemperatureAvgF,TemperatureLowF,DewpointHighF,DewpointAvgF,DewpointLowF,HumidityHigh,HumidityAvg,HumidityLow,PressureMaxIn,PressureMinIn,WindSpeedMaxMPH,WindSpeedAvgMPH,GustSpeedMaxMPH,PrecipitationSumIn
2013-5-25,55.9,51.5,49.1,44.3,40.5,37.8,78,66,60,30.00,29.93,4,3,8,0.04
2013-5-26,70.5,57.8,46.4,40.8,34.9,29.7,71,46,22,30.21,29.94,15,4,22,0.15
2013-5-27,79.5,64.0,47.1,40.0,35.3,24.4,66,38,13,30.25,30.11,10,3,14,0.00
2013-5-28,70.5,57.8,51.1,57.5,53.5,39.6,98,88,42,30.22,30.13,4,1,7,0.48
2013-5-29,89.1,71.3,57.9,66.0,61.1,57.4,99,74,45,30.14,30.00,12,2,20,0.01
2013-5-30,95.4,83.6,70.2,67.5,63.3,60.9,82,53,34,30.14,30.06,11,3,18,0.00
2013-5-31,97.7,85.1,70.5,68.5,63.5,57.2,79,51,28,30.14,29.99,11,2,14,0.00
2013-6-1,94.5,82.5,70.2,68.3,64.4,60.0,82,56,39,30.03,29.89,13,3,21,0.00
2013-6-2,108.5,81.8,73.4,70.4,66.3,57.2,81,61,29,29.92,29.77,13,3,32,0.63
2013-6-3,81.0,72.3,66.6,68.6,64.8,47.9,95,79,48,29.90,29.81,12,2,18,0.33
2013-6-4,78.4,66.6,55.9,49.9,43.4,38.4,62,44,25,30.12,29.90,15,5,22,0.00
2013-6-5,77.7,65.4,51.4,53.3,45.7,38.7,73,50,35,30.22,30.12,10,2,16,0.00
2013-6-6,74.5,63.8,54.7,58.3,54.0,47.3,92,72,43,30.16,30.03,11,2,15,0.19
2013-6-7,61.9,60.4,59.4,60.4,59.0,57.9,97,95,92,30.03,29.65,10,2,14,2.75
2013-6-8,80.4,67.7,56.5,64.0,59.3,55.1,98,76,53,30.06,29.60,11,3,18,0.14
2013-6-9,83.8,72.0,58.8,60.1,58.1,55.0,94,65,42,30.18,30.06,10,2,16,0.00
2013-6-10,71.6,65.8,61.7,64.9,61.8,59.0,95,87,73,30.17,29.83,10,2,15,0.00
2013-6-11,82.4,69.7,62.4,69.0,63.7,60.8,97,83,53,29.83,29.65,13,3,18,0.02
2013-6-12,81.0,71.9,63.7,54.7,53.0,51.7,69,52,39,29.94,29.89,13,2,18,0.00
2013-6-13,64.4,61.1,56.3,60.2,56.8,53.1,94,86,69,29.94,29.56,12,2,18,6.59
2013-6-14,74.5,62.1,52.7,56.7,53.0,50.6,94,74,52,29.98,29.62,12,3,19,0.39
2013-6-15,83.8,71.1,59.7,56.3,52.7,47.8,82,55,31,30.10,29.98,11,3,15,0.00
2013-6-16,84.0,71.8,58.3,62.9,57.1,51.3,84,62,39,30.08,29.85,16,3,24,0.00
2013-6-17,88.3,76.8,65.7,65.8,62.8,60.1,89,64,42,30.00,29.91,14,3,18,0.00
2013-6-18,87.3,70.6,63.7,67.8,62.6,57.8,92,77,47,29.99,29.90,11,1,14,0.21
2013-6-19,81.5,68.6,57.6,60.7,53.5,46.8,92,63,32,30.25,29.98,9,2,13,0.06
2013-6-20,81.5,69.9,56.1,59.9,54.8,50.9,87,61,41,30.36,30.26,8,2,11,0.00
2013-6-21,85.1,74.1,59.7,60.8,55.5,48.6,74,53,41,30.40,30.31,9,2,14,0.00
2013-6-22,87.1,77.3,63.0,62.9,58.4,51.2,70,53,39,30.35,30.22,10,2,14,0.00
2013-6-23,91.2,81.0,66.6,69.0,66.2,57.6,80,62,44,30.28,30.14,13,3,16,0.00
2013-6-24,94.8,81.9,72.3,70.9,67.1,62.0,87,63,38,30.16,30.02,14,3,18,0.00
2013-6-25,94.3,81.4,70.9,70.6,65.8,62.8,79,61,43,30.09,29.89,15,3,23,0.00
2013-6-26,86.4,80.2,73.8,67.9,65.8,63.7,75,62,50,29.94,29.86,10,3,15,0.00
2013-6-27,88.3,78.4,70.7,70.9,68.2,65.3,91,72,52,29.92,29.63,12,2,17,0.59
2013-6-28,88.7,79.5,72.3,70.6,66.8,62.7,90,67,45,29.65,29.55,12,4,20,0.01
2013-6-29,86.4,77.5,68.9,69.3,65.7,63.0,86,68,48,29.79,29.57,8,2,14,0.00
2013-6-30,87.1,76.8,69.6,72.8,69.4,66.1,90,79,56,30.01,29.78,6,1,11,0.00
2013-7-1,77.7,74.7,72.1,73.1,70.4,67.7,92,87,78,30.14,29.99,13,1,18,1.24
2013-7-2,86.4,78.0,72.5,73.5,69.9,67.6,91,77,59,30.28,30.14,10,2,18,0.00
2013-7-3,87.3,78.2,72.3,72.3,69.2,66.3,84,74,56,30.34,30.26,8,2,12,0.00
2013-7-4,91.2,82.7,74.5,72.3,69.8,66.8,90,67,48,30.34,30.24,11,4,19,0.00
2013-7-5,93.6,84.3,74.7,72.0,68.6,65.7,83,61,44,30.31,30.18,10,4,15,0.00
2013-7-6,94.8,85.9,76.8,71.1,68.9,66.5,78,58,45,30.23,30.11,11,4,18,0.00
2013-7-7,96.3,85.8,73.2,72.6,69.6,66.1,86,60,43,30.15,30.02,22,3,28,0.11
2013-7-8,90.7,80.7,70.7,68.2,65.6,64.1,82,62,43,30.13,30.05,11,3,17,0.00
2013-7-9,91.4,81.2,71.2,70.6,65.7,63.0,77,60,44,30.16,30.07,9,2,15,0.01
2013-7-10,89.2,82.3,74.7,73.0,68.5,65.1,80,64,49,30.11,29.89,14,4,19,0.00
2013-7-11,87.1,80.2,73.4,71.0,66.6,61.2,80,64,48,30.02,29.89,8,3,11,0.00
2013-7-12,81.0,73.6,67.3,66.4,63.2,59.4,88,70,56,30.21,30.01,11,2,16,0.08
2013-7-13,82.4,73.3,66.6,72.7,68.0,63.2,92,84,67,30.38,30.20,8,2,12,0.09
2013-7-14,93.2,82.6,72.9,73.3,69.3,66.0,91,67,45,30.43,30.32,10,2,14,0.00
2013-7-15,95.5,86.0,76.5,71.6,68.9,66.4,76,58,44,30.34,30.22,12,3,20,0.00
2013-7-16,95.0,84.7,73.9,69.1,66.4,62.8,76,56,41,30.30,30.22,11,2,19,0.00
2013-7-17,97.3,86.0,74.7,71.8,67.5,64.7,75,56,35,30.29,30.15,8,1,11,0.00
2013-7-18,98.8,88.7,78.3,72.7,68.9,66.7,70,53,37,30.16,30.03,11,2,15,0.00
2013-7-19,98.4,89.8,80.1,73.2,70.4,68.2,69,54,42,30.06,29.87,15,4,23,0.00
2013-7-20,95.4,86.6,79.5,72.2,67.8,62.3,66,54,41,29.93,29.81,14,4,23,0.00
2013-7-21,90.7,81.3,75.4,69.8,64.6,58.4,80,59,42,30.05,29.92,8,1,11,0.01
2013-7-22,85.5,77.0,72.5,74.2,68.9,62.8,91,77,58,30.05,29.89,9,1,16,0.41
2013-7-23,89.4,79.0,72.7,72.2,69.8,65.7,92,76,50,29.89,29.64,18,2,23,0.34
2013-7-24,82.6,75.5,67.8,70.0,62.9,51.6,91,67,46,30.03,29.71,13,4,19,0.01
2013-7-25,68.4,65.8,62.6,57.7,53.4,47.8,75,64,57,30.16,30.03,12,2,20,0.00
2013-7-26,84.4,73.9,65.1,62.5,58.6,55.8,76,60,44,30.14,30.08,8,2,15,0.00
2013-7-27,86.0,75.0,64.6,64.9,61.2,57.4,87,64,47,30.14,30.05,10,1,13,0.00
2013-7-28,80.6,72.6,66.4,68.6,64.1,60.8,91,76,59,30.08,30.02,11,1,14,0.21
2013-7-29,85.8,76.0,67.6,68.8,62.4,52.9,94,67,35,30.20,30.05,12,3,16,0.01
2013-7-30,83.5,72.2,60.8,60.2,55.9,52.7,78,58,42,30.26,30.19,11,3,14,0.00
2013-7-31,84.2,72.7,61.0,61.9,58.7,55.3,84,63,45,30.26,30.13,8,1,9,0.00
2013-8-1,75.4,69.8,66.7,68.2,63.0,59.8,96,80,64,30.14,29.93,8,1,14,0.43
2013-8-2,85.3,77.3,64.4,67.9,62.7,59.0,98,63,44,30.01,29.93,14,4,17,0.00
2013-8-3,79.7,72.0,67.1,67.5,62.6,57.4,86,73,59,30.01,29.93,13,2,17,0.02
2013-8-4,81.0,71.4,61.5,63.0,57.0,51.1,89,63,41,30.07,29.95,18,4,24,0.00
2013-8-5,79.7,69.2,58.6,54.2,51.5,47.1,77,55,37,30.16,30.06,11,3,15,0.00
2013-8-6,81.3,70.0,56.3,62.1,56.1,52.8,88,64,41,30.22,30.13,8,1,14,0.00
2013-8-7,80.4,72.3,66.6,66.3,63.1,59.1,84,73,57,30.24,30.16,8,2,14,0.00
2013-8-8,84.0,74.1,69.1,74.1,69.1,65.7,93,85,67,30.16,30.10,8,1,12,0.22
2013-8-9,87.1,76.8,72.0,75.5,72.0,69.2,95,86,63,30.11,29.89,15,2,21,0.19
2013-8-10,84.7,75.5,67.1,71.3,62.5,56.6,92,66,43,30.15,29.96,14,3,20,0.00
2013-8-11,81.3,72.0,60.3,62.2,57.0,53.2,82,61,43,30.23,30.12,8,2,11,0.00
2013-8-12,83.5,74.3,68.2,67.1,64.4,58.5,93,73,46,30.13,30.02,7,1,10,0.04
2013-8-13,79.0,72.3,67.1,69.7,66.8,63.3,94,83,65,30.03,29.79,11,1,20,0.39
2013-8-14,75.2,67.0,58.1,65.2,52.8,47.4,93,61,48,30.14,29.85,17,5,24,0.01
2013-8-15,78.8,67.0,53.2,57.0,51.7,47.5,89,60,36,30.24,30.15,11,2,14,0.00
2013-8-16,81.1,68.9,55.9,59.6,54.2,50.9,90,62,37,30.30,30.22,6,1,8,0.00
2013-8-17,83.3,70.8,57.0,62.6,56.4,52.5,90,63,42,30.37,30.30,8,1,10,0.00
2013-8-18,78.1,69.9,63.7,62.1,58.9,56.3,82,69,55,30.36,30.22,5,0,8,0.00
2013-8-19,81.1,71.5,62.2,64.0,60.6,57.0,89,70,52,30.23,30.12,8,2,11,0.00
2013-8-20,88.7,76.5,63.0,67.5,63.2,60.3,93,66,42,30.22,30.14,9,2,14,0.00
2013-8-21,90.0,78.2,65.7,65.7,62.5,59.0,87,61,39,30.27,30.14,8,2,11,0.00
2013-8-22,77.4,72.8,70.3,70.7,66.9,61.7,91,82,68,30.16,29.97,11,1,18,0.14
2013-8-23,83.1,73.9,65.7,68.0,60.5,54.0,89,65,43,30.20,29.97,13,2,17,0.00
2013-8-24,81.1,70.2,59.5,57.6,54.2,50.2,77,58,39,30.45,30.20,8,2,12,0.00
2013-8-25,84.0,70.9,56.1,60.4,55.6,52.6,91,62,36,30.50,30.32,8,2,15,0.00
2013-8-26,81.1,73.9,67.6,68.2,60.3,54.3,89,63,54,30.32,29.99,8,3,13,0.06
2013-8-27,87.3,77.7,70.9,68.4,66.5,65.1,90,70,50,30.00,29.91,12,3,18,0.01
2013-8-28,88.5,74.0,68.0,70.9,67.7,63.4,92,82,52,29.99,29.94,11,1,18,0.11
2013-8-29,81.9,73.2,68.7,69.6,66.6,62.5,95,81,62,30.12,29.98,8,2,11,0.01
2013-8-30,85.8,76.2,68.9,68.4,65.8,63.5,84,71,53,30.13,29.95,11,3,14,0.00
2013-8-31,87.8,79.3,72.5,71.4,69.0,66.7,83,71,56,29.96,29.87,9,3,17,0.00
2013-9-1,84.9,77.9,73.0,74.8,70.5,68.4,91,78,64,29.96,29.88,8,1,10,0.13
2013-9-2,81.0,76.0,72.1,74.0,71.0,67.4,95,85,71,29.90,29.80,5,0,8,0.06
2013-9-3,81.0,73.2,66.6,69.3,62.3,55.4,94,71,46,29.99,29.81,11,3,18,0.02
2013-9-4,81.5,71.5,61.3,59.5,57.0,52.9,83,62,42,30.09,29.98,12,3,18,0.00
2013-9-5,78.3,69.5,57.4,61.1,52.8,43.1,80,57,33,30.26,30.01,14,3,19,0.00
2013-9-6,71.4,61.6,50.5,48.7,45.3,42.8,75,57,37,30.36,30.23,8,2,11,0.00
2013-9-7,80.4,66.1,49.6,53.7,49.3,45.9,89,59,32,30.23,29.99,8,2,15,0.00
2013-9-8,81.9,71.5,61.0,63.2,54.0,44.6,70,55,34,30.18,29.91,17,4,24,0.00
2013-9-9,74.7,64.1,51.3,57.8,49.8,43.5,78,61,40,30.34,30.18,9,1,12,0.00
2013-9-10,88.2,76.4,66.9,70.3,65.6,57.8,81,70,54,30.26,30.13,11,3,14,0.00
2013-9-11,96.4,84.6,73.0,74.0,70.6,66.7,87,65,47,30.21,30.06,11,2,15,0.00
2013-9-12,90.0,77.6,68.0,71.6,68.3,64.1,94,74,53,30.08,29.77,15,2,27,1.70
2013-9-13,76.3,67.7,57.7,66.7,59.3,18.1,97,76,52,29.95,29.72,24,4,21,0.08
2013-9-14,68.4,58.7,51.4,51.7,47.1,44.3,82,66,53,30.23,29.95,14,4,16,9.06
2013-9-15,72.3,58.6,45.1,52.3,47.3,43.2,94,69,39,30.31,30.18,8,1,10,0.00
2013-9-16,73.6,63.0,56.3,56.4,52.9,45.5,87,71,49,30.35,30.12,13,2,18,0.01
2013-9-17,65.1,56.0,46.8,45.5,42.0,38.0,80,61,44,30.52,30.35,10,2,15,0.00
2013-9-18,71.8,58.2,43.5,51.6,46.0,41.6,94,68,35,30.45,30.28,6,1,12,0.00
2013-9-19,77.0,62.5,47.7,54.4,50.7,46.0,95,69,39,30.29,30.15,7,1,12,0.00
2013-9-20,79.7,65.4,51.6,60.7,54.7,49.5,94,71,45,30.19,30.09,6,1,10,0.00
2013-9-21,77.5,67.0,54.5,65.5,59.9,52.2,95,79,57,30.11,29.74,11,2,18,0.19
2013-9-22,68.4,62.4,53.1,65.8,52.0,41.3,94,71,49,30.01,29.74,21,5,27,0.28
2013-9-23,65.8,56.0,46.0,46.1,43.1,40.5,83,63,47,30.15,30.01,15,4,20,0.00
2013-9-24,72.9,57.9,42.6,46.9,43.8,39.2,90,62,36,30.15,29.96,12,2,16,0.00
2013-9-25,73.2,59.6,45.3,51.6,47.1,41.6,89,65,42,30.06,29.96,8,1,9,0.00
2013-9-26,70.9,60.7,50.7,58.3,52.5,47.6,93,75,57,30.20,30.03,5,1,8,0.00
2013-9-27,70.3,60.0,50.5,55.6,51.2,47.3,90,74,56,30.37,30.20,7,1,11,0.00
2013-9-28,59.9,55.7,52.5,52.1,50.9,49.7,91,84,75,30.39,30.35,2,0,4,0.00
2013-11-9,50.5,43.3,33.1,33.2,28.2,23.9,73,56,41,30.37,30.07,10,3,12,0.00
2013-11-10,60.1,47.9,38.8,39.3,34.4,31.4,78,61,35,30.07,29.87,16,5,28,0.00
2013-11-11,52.7,47.7,40.1,34.1,29.5,25.4,56,49,41,30.29,30.05,14,5,21,0.00
2013-11-12,50.0,38.0,29.8,35.0,23.1,14.2,80,55,41,30.36,30.01,21,6,28,0.04
2013-11-13,38.8,31.8,26.6,17.6,13.3,6.4,60,47,27,30.45,30.34,17,5,27,0.00
2013-11-14,53.1,39.8,29.1,22.4,17.2,10.4,65,43,22,30.34,30.22,13,3,18,0.00
2013-11-15,56.7,43.5,31.1,30.4,24.9,18.8,66,49,24,30.32,30.23,8,1,11,0.00
2013-11-16,60.3,48.1,38.5,44.5,39.0,28.1,88,72,55,30.40,30.30,7,1,8,0.01
2013-11-17,59.2,53.7,44.1,55.0,49.4,40.7,88,85,80,30.36,29.87,5,1,8,0.00
2013-11-18,64.8,58.4,49.5,56.5,40.9,25.6,87,56,30,29.87,29.67,21,6,27,0.15
2013-11-19,49.5,42.8,34.7,30.7,25.1,19.3,55,49,44,30.42,29.86,30,10,154,0.00
2013-11-20,43.5,35.1,29.3,19.3,15.5,8.5,65,46,24,30.68,30.42,14,3,19,0.00
2013-11-21,50.9,40.6,26.4,41.0,29.3,14.8,75,64,53,30.69,30.46,8,2,10,0.00
2013-11-22,56.7,51.5,47.1,49.1,44.5,38.9,87,77,70,30.46,29.98,8,2,13,0.02
2013-11-23,53.4,40.9,28.4,46.0,24.5,3.7,81,53,34,30.12,29.96,24,10,35,0.01
2013-11-24,29.1,25.0,21.9,4.0,-0.3,-7.6,44,33,21,30.43,30.08,29,11,36,0.00
2013-11-25,35.8,28.1,19.6,13.6,9.1,3.2,55,45,31,30.53,30.38,18,4,27,0.00
2013-11-26,45.9,36.2,32.2,43.1,23.7,13.3,90,62,44,30.39,29.85,9,2,14,0.40
2013-11-27,59.9,46.2,33.4,56.3,40.7,18.1,91,81,52,29.85,29.41,22,8,32,1.19
2013-11-28,34.0,30.8,27.9,18.2,11.8,4.2,60,46,28,30.53,29.80,22,7,33,0.00
2013-11-29,37.9,31.8,27.0,20.5,16.2,9.9,66,52,43,30.79,30.52,11,3,16,0.00
2013-11-30,35.1,29.9,21.9,24.0,15.4,8.7,64,55,42,30.82,30.44,8,2,11,0.00
2013-12-1,48.0,39.9,32.0,33.1,28.8,23.4,75,65,50,30.44,30.08,7,1,9,0.00
2013-12-2,46.0,39.9,34.2,37.2,32.7,27.5,83,75,69,30.08,29.96,3,1,5,0.00
2013-12-3,52.7,40.3,31.1,37.9,32.4,27.7,89,74,53,30.09,29.94,8,1,9,0.00
2013-12-4,51.3,42.3,33.6,38.9,34.4,28.9,86,74,62,30.21,30.08,4,1,6,0.00
2013-12-5,55.4,50.0,45.3,52.2,46.1,38.4,90,87,75,30.20,30.01,4,1,7,0.02
2013-12-6,55.4,46.7,35.2,52.3,43.3,31.2,91,88,83,30.24,29.94,14,3,19,0.80
2013-12-7,39.6,35.6,30.0,31.9,25.0,14.3,87,67,44,30.59,30.16,15,5,22,0.09
2013-12-8,32.4,29.3,26.4,24.3,16.8,10.7,82,60,49,30.66,30.45,9,2,14,0.00
2013-12-9,37.6,33.3,28.9,34.9,29.5,24.3,90,86,82,30.45,30.03,8,3,11,0.13
2013-12-10,34.3,31.7,26.4,30.0,26.4,14.2,87,81,59,30.18,29.93,11,3,17,0.00
2013-12-11,33.1,27.6,22.8,16.7,13.9,11.6,63,56,47,30.37,30.18,13,5,19,0.01
2013-12-12,26.8,23.5,20.7,12.1,4.6,-0.7,57,44,32,30.40,30.20,15,6,21,0.00
2013-12-13,34.5,26.9,18.3,26.9,9.7,0.6,97,48,42,30.38,30.16,15,4,21,0.00
2013-12-14,29.7,23.4,18.9,25.7,14.5,11.0,85,69,55,30.56,29.86,11,4,14,0.00
2013-12-15,37.6,32.7,28.4,30.2,25.8,19.0,86,76,58,29.89,29.58,16,3,22,0.25
2013-12-16,31.3,26.6,20.3,20.2,8.7,2.2,65,47,32,30.28,29.88,15,5,22,0.76
2013-12-17,27.0,23.1,18.7,19.8,14.7,5.3,77,70,54,30.28,29.99,8,2,11,0.00
2013-12-18,36.5,27.6,19.0,20.6,16.3,10.9,76,63,46,30.21,29.97,13,4,18,0.01
2013-12-19,43.5,34.0,24.3,27.9,21.4,13.4,69,60,48,30.23,30.07,14,2,18,0.07
2013-12-20,49.1,41.0,32.2,34.1,29.6,24.8,75,64,51,30.16,30.03,8,2,11,0.00
2013-12-21,60.1,50.9,41.7,49.2,42.6,34.1,87,74,61,30.06,29.96,9,2,14,0.00
2013-12-22,69.1,62.6,54.3,59.3,53.8,47.6,85,73,64,30.04,29.87,15,4,21,0.00
2013-12-23,59.5,53.6,40.5,54.7,47.7,29.6,86,81,65,30.23,29.98,20,3,34,0.41
2013-12-24,40.5,34.4,24.4,29.6,19.2,3.4,77,54,39,30.41,30.16,21,7,28,0.00
2013-12-25,27.7,23.4,17.2,11.6,3.6,-1.0,51,42,34,30.58,30.41,18,4,24,0.00
2013-12-26,34.9,30.6,26.6,23.0,18.2,12.0,66,60,52,30.48,30.22,11,2,15,0.00
2013-12-27,39.4,33.2,27.0,20.7,18.7,14.3,67,55,43,30.41,30.32,13,3,14,0.00
2013-12-28,52.9,39.5,27.1,26.8,22.8,16.8,69,52,33,30.34,30.13,14,3,21,0.25
2013-12-29,45.1,40.1,36.7,37.3,31.7,24.7,87,73,55,30.13,29.50,15,3,21,0.76
2013-12-30,42.4,33.8,21.6,36.3,21.9,4.9,86,63,41,30.26,29.75,18,5,25,0.00
2013-12-31,31.3,25.6,19.4,18.5,8.6,2.1,63,48,37,30.33,30.11,17,4,28,0.00
2014-1-1,33.1,27.5,20.8,16.2,10.4,1.9,56,48,38,30.46,30.31,12,2,14,0.00
2014-1-2,30.2,23.7,13.1,16.6,13.2,4.7,71,64,52,30.31,29.74,13,5,18,0.00